createdAt,value
2022-08-30T00:01:14.068Z,86.60
2022-08-30T00:03:47.246Z,85.82
2022-08-30T00:06:17.159Z,85.62
2022-08-30T00:08:44.613Z,84.91
2022-08-30T00:11:17.118Z,85.27
2022-08-30T00:13:46.547Z,86.47
2022-08-30T00:16:13.868Z,86.38
2022-08-30T00:18:41.366Z,86.13
2022-08-30T00:21:10.402Z,85.81
2022-08-30T00:23:38.415Z,86.00
2022-08-30T00:26:06.234Z,86.91
2022-08-30T00:28:34.146Z,87.06
2022-08-30T00:31:02.334Z,87.38
2022-08-30T00:33:30.213Z,86.81
2022-08-30T00:35:57.616Z,87.37
2022-08-30T00:38:24.585Z,87.55
2022-08-30T00:40:52.778Z,87.14
2022-08-30T00:43:30.002Z,87.50
2022-08-30T00:45:57.467Z,88.05
2022-08-30T00:48:24.446Z,87.38
2022-08-30T00:51:00.986Z,86.77
2022-08-30T00:53:36.728Z,86.67
2022-08-30T00:56:05.880Z,86.76
2022-08-30T00:58:38.444Z,86.19
2022-08-30T01:01:07.335Z,86.41
2022-08-30T01:03:34.761Z,87.69
2022-08-30T01:06:03.638Z,87.95
2022-08-30T01:08:30.917Z,88.40
2022-08-30T01:10:58.855Z,88.13
2022-08-30T01:13:27.158Z,87.07
2022-08-30T01:15:55.037Z,87.95
2022-08-30T01:18:24.100Z,90.09
2022-08-30T01:21:08.621Z,90.00
2022-08-30T01:23:39.424Z,90.58
2022-08-30T01:26:07.552Z,90.99
2022-08-30T01:28:34.837Z,90.36
2022-08-30T01:31:01.954Z,90.33
2022-08-30T01:33:29.591Z,90.09
2022-08-30T01:36:05.016Z,90.12
2022-08-30T01:38:44.827Z,90.41
2022-08-30T01:41:17.265Z,90.23
2022-08-30T01:43:44.805Z,91.24
2022-08-30T01:46:12.781Z,91.53
2022-08-30T01:48:42.135Z,91.02
2022-08-30T01:51:17.656Z,91.51
2022-08-30T01:53:45.798Z,91.44
2022-08-30T01:56:14.648Z,90.56
2022-08-30T01:58:42.168Z,90.40
2022-08-30T02:01:17.477Z,90.02
2022-08-30T02:03:45.319Z,90.00
2022-08-30T02:06:18.021Z,90.42
2022-08-30T02:08:45.656Z,90.14
2022-08-30T02:11:13.744Z,88.85
2022-08-30T02:13:43.163Z,88.89
2022-08-30T02:16:15.730Z,88.72
2022-08-30T02:18:42.762Z,88.45
2022-08-30T02:21:09.815Z,88.92
2022-08-30T02:23:37.281Z,89.34
2022-08-30T02:26:05.904Z,89.72
2022-08-30T02:28:32.820Z,90.14
2022-08-30T02:31:00.493Z,91.82
2022-08-30T02:33:27.645Z,91.60
2022-08-30T02:35:54.700Z,90.11
2022-08-30T02:38:21.794Z,89.17
2022-08-30T02:40:49.084Z,88.88
2022-08-30T02:43:16.416Z,89.42
2022-08-30T02:45:43.386Z,89.88
2022-08-30T02:48:10.679Z,90.14
2022-08-30T02:50:43.761Z,89.91
2022-08-30T02:53:10.802Z,91.51
2022-08-30T02:55:42.992Z,91.42
2022-08-30T02:58:11.090Z,92.01
2022-08-30T03:00:39.181Z,91.57
2022-08-30T03:03:07.590Z,92.23
2022-08-30T03:05:35.173Z,92.40
2022-08-30T03:08:04.905Z,92.78
2022-08-30T03:10:31.958Z,92.16
2022-08-30T03:12:58.738Z,92.55
2022-08-30T03:15:25.973Z,92.38
2022-08-30T03:17:55.277Z,92.36
2022-08-30T03:20:23.694Z,92.76
2022-08-30T03:22:50.818Z,92.29
2022-08-30T03:25:17.925Z,91.74
2022-08-30T03:27:44.718Z,91.05
2022-08-30T03:30:12.364Z,90.68
2022-08-30T03:32:40.664Z,90.54
2022-08-30T03:35:10.195Z,90.47
2022-08-30T03:37:37.209Z,91.54
2022-08-30T03:40:07.629Z,91.37
2022-08-30T03:42:35.686Z,91.58
2022-08-30T03:45:03.462Z,91.18
2022-08-30T03:47:30.221Z,91.32
2022-08-30T03:49:57.697Z,92.35
2022-08-30T03:52:24.522Z,92.13
2022-08-30T03:54:51.338Z,91.86
2022-08-30T03:57:20.177Z,91.45
2022-08-30T03:59:47.203Z,92.43
2022-08-30T04:02:14.165Z,92.05
2022-08-30T04:04:41.045Z,92.14
2022-08-30T04:07:07.875Z,92.27
2022-08-30T04:09:34.657Z,91.80
2022-08-30T04:12:01.500Z,91.67
2022-08-30T04:14:28.375Z,91.56
2022-08-30T04:16:55.177Z,90.88
2022-08-30T04:19:22.070Z,90.68
2022-08-30T04:21:48.850Z,90.61
2022-08-30T04:24:16.237Z,90.79
2022-08-30T04:26:43.149Z,90.63
2022-08-30T04:29:12.332Z,90.00
2022-08-30T04:31:39.190Z,89.57
2022-08-30T04:34:06.110Z,90.43
2022-08-30T04:36:33.009Z,91.49
2022-08-30T04:38:59.832Z,91.79
2022-08-30T04:41:26.597Z,91.68
2022-08-30T04:43:53.448Z,91.99
2022-08-30T04:46:20.532Z,91.12
2022-08-30T04:48:47.664Z,90.49
2022-08-30T04:51:17.572Z,90.17
2022-08-30T04:53:45.746Z,89.47
2022-08-30T04:56:22.444Z,89.08
2022-08-30T04:58:53.736Z,88.80
2022-08-30T05:01:26.855Z,88.84
2022-08-30T05:03:56.143Z,88.18
2022-08-30T05:06:24.721Z,88.61
2022-08-30T05:08:52.938Z,89.02
2022-08-30T05:11:20.690Z,89.26
2022-08-30T05:13:47.986Z,90.15
2022-08-30T05:16:18.035Z,90.63
2022-08-30T05:18:47.181Z,92.23
2022-08-30T05:21:21.978Z,92.44
2022-08-30T05:23:50.539Z,92.80
2022-08-30T05:26:28.676Z,92.50
2022-08-30T05:28:56.427Z,92.08
2022-08-30T05:31:34.823Z,91.59
2022-08-30T05:34:02.185Z,91.42
2022-08-30T05:36:31.992Z,91.12
2022-08-30T05:39:00.591Z,90.41
2022-08-30T05:41:28.645Z,91.24
2022-08-30T05:43:59.025Z,91.21
2022-08-30T05:46:29.700Z,91.24
2022-08-30T05:48:57.508Z,90.59
2022-08-30T05:51:28.810Z,90.00
2022-08-30T05:53:58.171Z,89.89
2022-08-30T05:56:31.104Z,89.60
2022-08-30T05:58:59.457Z,89.24
2022-08-30T06:01:33.685Z,89.46
2022-08-30T06:04:04.304Z,89.62
2022-08-30T06:06:35.231Z,90.15
2022-08-30T06:09:05.024Z,90.23
2022-08-30T06:11:33.886Z,89.83
2022-08-30T06:14:01.622Z,89.99
2022-08-30T06:16:29.136Z,90.32
2022-08-30T06:18:58.849Z,90.56
2022-08-30T06:21:32.378Z,90.74
2022-08-30T06:23:59.301Z,90.91
2022-08-30T06:26:28.405Z,91.61
2022-08-30T06:28:57.199Z,91.77
2022-08-30T06:31:26.605Z,91.89
2022-08-30T06:33:54.134Z,91.85
2022-08-30T06:36:25.094Z,92.08
2022-08-30T06:38:58.843Z,92.81
2022-08-30T06:41:29.246Z,92.32
2022-08-30T06:43:58.197Z,94.22
2022-08-30T06:46:32.782Z,94.42
2022-08-30T06:49:00.761Z,94.43
2022-08-30T06:51:36.044Z,94.99
2022-08-30T06:54:04.453Z,94.88
2022-08-30T06:56:32.482Z,95.73
2022-08-30T06:59:00.031Z,95.16
2022-08-30T07:01:28.952Z,95.35
2022-08-30T07:03:57.028Z,94.40
2022-08-30T07:06:25.787Z,94.93
2022-08-30T07:08:56.338Z,93.19
2022-08-30T07:11:32.149Z,92.84
2022-08-30T07:13:59.942Z,92.20
2022-08-30T07:16:27.990Z,92.94
2022-08-30T07:18:55.837Z,92.39
2022-08-30T07:21:43.896Z,92.47
2022-08-30T07:24:12.912Z,91.91
2022-08-30T07:26:46.542Z,91.41
2022-08-30T07:29:13.545Z,90.88
2022-08-30T07:31:40.598Z,90.24
2022-08-30T07:34:08.322Z,89.85
2022-08-30T07:36:37.582Z,89.23
2022-08-30T07:39:06.259Z,89.30
2022-08-30T07:41:38.925Z,88.85
2022-08-30T07:44:08.748Z,89.16
2022-08-30T07:46:37.513Z,87.58
2022-08-30T07:49:11.273Z,87.21
2022-08-30T07:51:40.607Z,87.33
2022-08-30T07:54:07.638Z,85.87
2022-08-30T07:56:35.273Z,85.65
2022-08-30T07:59:02.059Z,85.87
2022-08-30T08:01:28.959Z,85.26
2022-08-30T08:03:55.742Z,84.80
2022-08-30T08:06:24.038Z,84.08
2022-08-30T08:08:51.685Z,83.79
2022-08-30T08:11:26.833Z,82.00
2022-08-30T08:13:56.181Z,82.31
2022-08-30T08:16:26.185Z,82.12
2022-08-30T08:18:54.271Z,81.14
2022-08-30T08:21:22.698Z,78.10
2022-08-30T08:23:50.173Z,75.25
2022-08-30T08:26:17.550Z,73.89
2022-08-30T08:28:45.172Z,73.45
2022-08-30T08:31:27.333Z,67.46
2022-08-30T08:34:06.086Z,67.84
2022-08-30T08:36:36.144Z,67.17
2022-08-30T08:39:05.576Z,65.61
2022-08-30T08:42:00.967Z,62.65
2022-08-30T08:44:34.443Z,63.46
2022-08-30T08:47:24.329Z,61.77
2022-08-30T08:49:55.857Z,59.58
2022-08-30T08:52:59.894Z,59.85
2022-08-30T08:55:29.845Z,59.27
2022-08-30T08:57:57.762Z,57.68
2022-08-30T09:00:25.123Z,57.13
2022-08-30T09:03:01.690Z,56.32
2022-08-30T09:05:41.134Z,55.50
2022-08-30T09:08:14.166Z,55.16
2022-08-30T09:10:51.416Z,53.73
2022-08-30T09:13:22.729Z,53.99
2022-08-30T09:15:54.637Z,53.28
2022-08-30T09:18:47.468Z,52.90
2022-08-30T09:21:26.108Z,50.88
2022-08-30T09:24:15.784Z,49.98
2022-08-30T09:26:47.533Z,47.49
2022-08-30T09:29:20.238Z,48.36
2022-08-30T09:32:10.193Z,49.35
2022-08-30T09:34:43.821Z,47.92
2022-08-30T09:37:54.358Z,46.93
2022-08-30T09:40:41.423Z,45.21
2022-08-30T09:43:21.960Z,46.42
2022-08-30T09:46:10.289Z,44.28
2022-08-30T09:48:46.081Z,43.43
2022-08-30T09:51:13.375Z,43.69
2022-08-30T09:54:07.245Z,43.32
2022-08-30T09:57:15.938Z,41.91
2022-08-30T09:59:57.530Z,41.83
2022-08-30T10:03:05.141Z,39.70
2022-08-30T10:06:10.950Z,39.99
2022-08-30T10:09:02.054Z,40.33
2022-08-30T10:11:43.898Z,36.91
2022-08-30T10:14:39.210Z,38.62
2022-08-30T10:17:06.009Z,39.36
2022-08-30T10:20:04.022Z,39.03
2022-08-30T10:22:47.421Z,40.02
2022-08-30T10:25:32.447Z,39.55
2022-08-30T10:28:10.422Z,39.56
2022-08-30T10:30:42.784Z,39.45
2022-08-30T10:33:39.878Z,40.21
2022-08-30T10:36:12.979Z,41.14
2022-08-30T10:38:50.221Z,41.44
2022-08-30T10:41:36.972Z,39.73
2022-08-30T10:44:20.832Z,38.97
2022-08-30T10:47:45.043Z,39.50
2022-08-30T10:50:28.577Z,38.80
2022-08-30T10:53:04.021Z,39.97
2022-08-30T10:55:36.871Z,39.10
2022-08-30T10:58:06.556Z,39.08
2022-08-30T11:01:07.705Z,40.95
2022-08-30T11:03:39.860Z,41.39
2022-08-30T11:06:23.069Z,41.75
2022-08-30T11:08:57.512Z,41.05
2022-08-30T11:12:26.361Z,40.31
2022-08-30T11:14:54.300Z,40.58
2022-08-30T11:18:01.576Z,40.62
2022-08-30T11:20:39.932Z,41.33
2022-08-30T11:23:24.413Z,41.60
2022-08-30T11:26:16.877Z,40.77
2022-08-30T11:28:47.475Z,40.94
2022-08-30T11:31:23.732Z,40.38
2022-08-30T11:34:00.969Z,37.92
2022-08-30T11:39:48.953Z,39.90
2022-08-30T11:42:53.721Z,38.81
2022-08-30T11:45:25.197Z,38.41
2022-08-30T11:47:55.297Z,39.63
2022-08-30T11:50:53.690Z,39.51
2022-08-30T11:53:47.190Z,39.62
2022-08-30T11:56:54.454Z,40.86
2022-08-30T11:59:42.782Z,40.16
2022-08-30T12:02:09.754Z,39.71
2022-08-30T12:04:46.655Z,39.72
2022-08-30T12:07:57.186Z,39.39
2022-08-30T12:10:43.454Z,40.54
2022-08-30T12:13:40.063Z,39.28
2022-08-30T12:16:27.716Z,39.78
2022-08-30T12:19:09.893Z,39.23
2022-08-30T12:21:44.964Z,38.70
2022-08-30T12:24:25.660Z,38.96
2022-08-30T12:26:53.728Z,37.96
2022-08-30T12:29:28.000Z,37.27
2022-08-30T12:31:58.621Z,36.85
2022-08-30T12:34:31.771Z,37.78
2022-08-30T12:37:08.518Z,35.39
2022-08-30T12:39:42.730Z,35.17
2022-08-30T12:42:17.578Z,34.76
2022-08-30T12:44:46.062Z,35.06
2022-08-30T12:47:20.438Z,34.90
2022-08-30T12:49:48.994Z,35.02
2022-08-30T12:52:29.543Z,33.41
2022-08-30T12:55:17.336Z,32.99
2022-08-30T12:58:10.187Z,32.96
2022-08-30T13:00:40.818Z,33.41
2022-08-30T13:03:36.867Z,32.77
2022-08-30T13:06:07.533Z,34.45
2022-08-30T13:08:51.714Z,33.55
2022-08-30T13:11:21.090Z,34.18
2022-08-30T13:13:58.445Z,34.51
2022-08-30T13:16:42.255Z,33.85
2022-08-30T13:19:36.753Z,34.13
2022-08-30T13:22:05.472Z,34.18
2022-08-30T13:24:32.292Z,34.08
2022-08-30T13:27:06.721Z,32.67
2022-08-30T13:29:33.606Z,32.78
2022-08-30T13:32:00.447Z,33.49
2022-08-30T13:34:27.382Z,34.33
2022-08-30T13:36:58.820Z,33.46
2022-08-30T13:39:26.500Z,33.64
2022-08-30T13:41:53.728Z,34.62
2022-08-30T13:44:21.390Z,34.71
2022-08-30T13:46:55.325Z,34.32
2022-08-30T13:49:43.451Z,34.38
2022-08-30T13:52:21.803Z,34.70
2022-08-30T13:54:54.704Z,34.40
2022-08-30T14:00:19.406Z,34.51
2022-08-30T14:02:54.597Z,34.97
2022-08-30T14:11:02.276Z,35.23
2022-08-30T14:13:29.604Z,35.28
2022-08-30T14:18:47.687Z,35.25
2022-08-30T14:21:15.908Z,33.93
2022-08-30T14:23:42.816Z,34.69
2022-08-30T14:26:18.731Z,34.96
2022-08-30T14:28:46.168Z,35.24
2022-08-30T14:31:19.734Z,36.02
2022-08-30T14:33:47.213Z,35.95
2022-08-30T14:36:15.727Z,36.02
2022-08-30T14:38:43.931Z,36.89
2022-08-30T14:41:11.655Z,38.54
2022-08-30T14:43:40.706Z,37.53
2022-08-30T14:46:09.129Z,36.80
2022-08-30T14:48:38.440Z,36.33
2022-08-30T14:51:18.406Z,37.98
2022-08-30T14:53:46.622Z,37.77
2022-08-30T14:56:19.796Z,38.51
2022-08-30T14:58:50.260Z,39.02
2022-08-30T15:01:18.794Z,38.60
2022-08-30T15:03:47.121Z,38.50
2022-08-30T15:06:14.043Z,38.34
2022-08-30T15:08:41.354Z,38.47
2022-08-30T15:11:14.029Z,39.94
2022-08-30T15:13:42.525Z,38.63
2022-08-30T15:16:17.941Z,38.75
2022-08-30T15:18:44.905Z,38.93
2022-08-30T15:21:11.770Z,39.49
2022-08-30T15:23:40.525Z,39.44
2022-08-30T15:26:09.476Z,39.78
2022-08-30T15:28:36.957Z,39.43
2022-08-30T15:31:08.547Z,40.12
2022-08-30T15:33:36.454Z,39.82
2022-08-30T15:36:05.024Z,40.20
2022-08-30T15:38:32.775Z,40.21
2022-08-30T15:41:05.244Z,39.92
2022-08-30T15:43:32.137Z,39.72
2022-08-30T15:46:30.093Z,40.69
2022-08-30T15:49:01.711Z,40.55
2022-08-30T15:51:30.684Z,41.11
2022-08-30T15:53:58.057Z,41.28
2022-08-30T15:56:25.040Z,41.82
2022-08-30T15:58:53.136Z,41.47
2022-08-30T16:01:20.332Z,40.94
2022-08-30T16:03:57.473Z,41.05
2022-08-30T16:06:28.414Z,41.67
2022-08-30T16:08:55.851Z,40.66
2022-08-30T16:11:24.840Z,41.04
2022-08-30T16:13:57.564Z,41.11
2022-08-30T16:16:24.730Z,41.44
2022-08-30T16:18:53.701Z,41.91
2022-08-30T16:21:27.738Z,41.25
2022-08-30T16:23:57.727Z,40.77
2022-08-30T16:26:27.929Z,41.82
2022-08-30T16:28:55.734Z,42.01
2022-08-30T16:31:24.274Z,41.87
2022-08-30T16:33:53.274Z,42.74
2022-08-30T16:36:22.978Z,42.55
2022-08-30T16:38:53.574Z,42.33
2022-08-30T16:41:24.484Z,43.09
2022-08-30T16:43:53.201Z,43.03
2022-08-30T16:46:23.373Z,42.90
2022-08-30T16:49:01.646Z,43.16
2022-08-30T16:51:31.466Z,43.44
2022-08-30T16:54:01.802Z,45.44
2022-08-30T16:56:30.822Z,43.51
2022-08-30T16:59:02.559Z,45.43
2022-08-30T17:01:33.325Z,44.95
2022-08-30T17:04:02.378Z,44.59
2022-08-30T17:06:29.286Z,46.62
2022-08-30T17:08:57.013Z,44.96
2022-08-30T17:11:25.212Z,47.03
2022-08-30T17:13:52.805Z,48.32
2022-08-30T17:16:22.582Z,48.46
2022-08-30T17:18:59.989Z,48.80
2022-08-30T17:21:31.021Z,49.26
2022-08-30T17:24:01.430Z,49.56
2022-08-30T17:26:46.154Z,50.23
2022-08-30T17:29:12.969Z,49.58
2022-08-30T17:31:46.362Z,50.36
2022-08-30T17:34:18.038Z,50.86
2022-08-30T17:36:44.946Z,51.19
2022-08-30T17:39:13.066Z,51.93
2022-08-30T17:41:48.255Z,52.50
2022-08-30T17:44:25.887Z,53.10
2022-08-30T17:46:53.781Z,52.85
2022-08-30T17:49:21.401Z,53.42
2022-08-30T17:51:54.200Z,53.49
2022-08-30T17:54:24.482Z,53.96
2022-08-30T17:56:52.965Z,54.33
2022-08-30T17:59:24.839Z,55.01
2022-08-30T18:01:54.760Z,55.51
2022-08-30T18:04:22.330Z,55.89
2022-08-30T18:06:52.382Z,56.23
2022-08-30T18:09:19.212Z,55.89
2022-08-30T18:11:48.278Z,56.36
2022-08-30T18:14:16.413Z,56.50
2022-08-30T18:16:50.216Z,56.70
2022-08-30T18:19:21.693Z,57.26
2022-08-30T18:21:48.650Z,57.49
2022-08-30T18:24:16.794Z,58.50
2022-08-30T18:26:43.813Z,58.84
2022-08-30T18:29:11.039Z,59.02
2022-08-30T18:31:38.349Z,59.22
2022-08-30T18:34:07.051Z,60.06
2022-08-30T18:36:40.715Z,60.79
2022-08-30T18:39:08.573Z,61.11
2022-08-30T18:41:43.049Z,61.62
2022-08-30T18:44:26.738Z,62.12
2022-08-30T18:46:56.066Z,62.28
2022-08-30T18:49:27.006Z,62.80
2022-08-30T18:51:54.548Z,62.98
2022-08-30T18:54:21.594Z,63.41
2022-08-30T18:56:49.658Z,64.33
2022-08-30T18:59:17.419Z,64.70
2022-08-30T19:01:47.171Z,65.06
2022-08-30T19:04:22.479Z,65.24
2022-08-30T19:06:57.269Z,65.45
2022-08-30T19:09:24.083Z,66.12
2022-08-30T19:11:53.917Z,66.26
2022-08-30T19:14:20.715Z,66.70
2022-08-30T19:16:48.212Z,69.05
2022-08-30T19:19:15.662Z,69.76
2022-08-30T19:21:42.458Z,69.77
2022-08-30T19:24:09.898Z,69.58
2022-08-30T19:26:38.457Z,70.19
2022-08-30T19:29:06.767Z,70.48
2022-08-30T19:31:34.154Z,70.24
2022-08-30T19:34:01.061Z,70.95
2022-08-30T19:36:29.024Z,70.46
2022-08-30T19:38:56.025Z,70.43
2022-08-30T19:41:23.566Z,70.58
2022-08-30T19:43:51.462Z,70.52
2022-08-30T19:46:18.542Z,70.83
2022-08-30T19:48:45.613Z,70.72
2022-08-30T19:51:15.214Z,70.87
2022-08-30T19:53:58.657Z,71.46
2022-08-30T19:56:30.568Z,70.75
2022-08-30T19:58:57.428Z,70.64
2022-08-30T20:01:33.502Z,70.87
2022-08-30T20:04:02.268Z,71.35
2022-08-30T20:06:30.973Z,71.47
2022-08-30T20:09:00.405Z,71.42
2022-08-30T20:11:28.663Z,71.85
2022-08-30T20:13:55.773Z,71.60
2022-08-30T20:16:33.053Z,72.23
2022-08-30T20:19:06.621Z,72.29
2022-08-30T20:21:34.282Z,72.36
2022-08-30T20:24:02.921Z,72.59
2022-08-30T20:26:34.366Z,72.21
2022-08-30T20:29:03.560Z,72.32
2022-08-30T20:31:30.687Z,72.38
2022-08-30T20:33:57.814Z,72.33
2022-08-30T20:36:24.597Z,72.39
2022-08-30T20:38:51.673Z,72.98
2022-08-30T20:41:19.941Z,73.58
2022-08-30T20:43:48.866Z,73.32
2022-08-30T20:46:19.550Z,73.42
2022-08-30T20:48:47.823Z,73.49
2022-08-30T20:51:19.086Z,73.07
2022-08-30T20:53:46.133Z,72.67
2022-08-30T20:56:19.669Z,72.91
2022-08-30T20:58:46.519Z,73.45
2022-08-30T21:01:14.722Z,73.40
2022-08-30T21:03:43.946Z,73.48
2022-08-30T21:06:11.905Z,73.28
2022-08-30T21:08:39.949Z,73.69
2022-08-30T21:11:07.242Z,73.57
2022-08-30T21:13:34.057Z,74.39
2022-08-30T21:16:03.539Z,74.10
2022-08-30T21:18:34.151Z,73.97
2022-08-30T21:21:14.909Z,74.32
2022-08-30T21:23:42.910Z,74.26
2022-08-30T21:26:10.909Z,74.05
2022-08-30T21:28:38.952Z,74.17
2022-08-30T21:31:14.789Z,74.09
2022-08-30T21:33:42.058Z,74.22
2022-08-30T21:36:28.967Z,74.61
2022-08-30T21:39:00.904Z,74.90
2022-08-30T21:41:30.213Z,75.14
2022-08-30T21:44:00.024Z,75.35
2022-08-30T21:46:28.323Z,74.95
2022-08-30T21:48:58.115Z,74.52
2022-08-30T21:51:25.283Z,74.85
2022-08-30T21:53:52.057Z,75.02
2022-08-30T21:56:22.244Z,74.81
2022-08-30T21:58:49.885Z,74.59
2022-08-30T22:01:23.722Z,74.55
2022-08-30T22:03:53.319Z,74.81
2022-08-30T22:06:20.615Z,74.70
2022-08-30T22:08:48.961Z,75.14
2022-08-30T22:11:21.637Z,75.41
2022-08-30T22:13:50.639Z,75.01
2022-08-30T22:16:22.933Z,75.69
2022-08-30T22:18:50.632Z,75.16
2022-08-30T22:21:23.196Z,75.50
2022-08-30T22:23:50.593Z,75.75
2022-08-30T22:26:19.455Z,75.38
2022-08-30T22:28:46.360Z,74.97
2022-08-30T22:31:15.965Z,75.29
2022-08-30T22:33:43.598Z,74.95
2022-08-30T22:36:21.063Z,75.20
2022-08-30T22:38:48.958Z,75.33
2022-08-30T22:41:18.641Z,75.18
2022-08-30T22:43:48.875Z,74.83
2022-08-30T22:46:18.458Z,74.36
2022-08-30T22:48:56.135Z,74.45
2022-08-30T22:51:23.053Z,74.65
2022-08-30T22:53:50.323Z,74.52
2022-08-30T22:56:22.983Z,74.44
2022-08-30T22:58:50.029Z,75.24
2022-08-30T23:01:26.919Z,74.85
2022-08-30T23:03:54.294Z,75.39
2022-08-30T23:06:22.184Z,75.21
2022-08-30T23:08:49.460Z,75.67
2022-08-30T23:11:17.119Z,75.48
2022-08-30T23:13:44.801Z,76.22
2022-08-30T23:16:13.077Z,75.86
2022-08-30T23:18:42.573Z,76.13
2022-08-30T23:21:24.519Z,76.36
2022-08-30T23:24:11.572Z,75.85
2022-08-30T23:26:59.800Z,75.69
2022-08-30T23:29:46.476Z,75.39
2022-08-30T23:32:32.876Z,76.05
2022-08-30T23:35:18.151Z,75.68
2022-08-30T23:38:05.345Z,75.34
2022-08-30T23:40:50.865Z,75.32
2022-08-30T23:43:36.604Z,74.60
2022-08-30T23:46:22.132Z,75.70
2022-08-30T23:49:09.219Z,75.28
2022-08-30T23:51:56.911Z,75.63
2022-08-30T23:54:43.533Z,75.99
2022-08-30T23:57:28.778Z,75.46
